createdAt,value
2023-03-01T00:02:00.901Z,11.37
2023-03-01T00:04:30.028Z,8.60
2023-03-01T00:07:01.289Z,9.70
2023-03-01T00:09:28.111Z,9.07
2023-03-01T00:12:01.406Z,9.60
2023-03-01T00:14:30.879Z,9.00
2023-03-01T00:16:57.755Z,9.00
2023-03-01T00:19:29.378Z,10.37
2023-03-01T00:22:00.820Z,8.90
2023-03-01T00:24:27.768Z,13.07
2023-03-01T00:26:57.935Z,9.07
2023-03-01T00:29:28.454Z,10.30
2023-03-01T00:31:58.613Z,9.77
2023-03-01T00:34:28.449Z,11.77
2023-03-01T00:37:06.173Z,9.63
2023-03-01T00:39:36.062Z,10.20
2023-03-01T00:42:03.151Z,11.20
2023-03-01T00:44:32.120Z,9.60
2023-03-01T00:46:59.128Z,8.87
2023-03-01T00:49:28.579Z,11.07
2023-03-01T00:51:59.330Z,9.83
2023-03-01T00:54:28.455Z,10.43
2023-03-01T00:56:55.277Z,10.60
2023-03-01T00:59:22.245Z,9.73
2023-03-01T01:01:49.457Z,8.93
2023-03-01T01:04:16.577Z,9.97
2023-03-01T01:06:46.749Z,9.43
2023-03-01T01:09:20.764Z,9.70
2023-03-01T01:11:55.546Z,10.20
2023-03-01T01:14:27.000Z,9.27
2023-03-01T01:16:55.061Z,10.93
2023-03-01T01:19:23.108Z,10.70
2023-03-01T01:21:56.466Z,8.40
2023-03-01T01:24:23.746Z,12.30
2023-03-01T01:26:53.473Z,12.83
2023-03-01T01:29:20.602Z,9.63
2023-03-01T01:31:51.846Z,12.27
2023-03-01T01:34:22.310Z,12.17
2023-03-01T01:36:55.632Z,10.23
2023-03-01T01:39:23.309Z,9.77
2023-03-01T01:41:50.328Z,10.53
2023-03-01T01:44:27.908Z,10.13
2023-03-01T01:47:15.509Z,11.07
2023-03-01T01:50:02.968Z,10.00
2023-03-01T01:52:38.992Z,10.33
2023-03-01T01:55:28.423Z,10.47
2023-03-01T01:58:04.502Z,10.67
2023-03-01T02:00:37.905Z,10.27
2023-03-01T02:03:22.325Z,9.87
2023-03-01T02:06:20.802Z,10.87
2023-03-01T02:08:53.533Z,10.50
2023-03-01T02:11:23.153Z,10.53
2023-03-01T02:13:54.379Z,9.37
2023-03-01T02:16:22.522Z,11.03
2023-03-01T02:18:51.075Z,11.30
2023-03-01T02:21:27.328Z,12.40
2023-03-01T02:23:58.702Z,13.33
2023-03-01T02:26:46.311Z,11.60
2023-03-01T02:29:13.631Z,12.73
2023-03-01T02:31:42.691Z,10.40
2023-03-01T02:34:26.150Z,9.63
2023-03-01T02:37:06.118Z,13.13
2023-03-01T02:39:42.986Z,11.20
2023-03-01T02:42:27.131Z,11.57
2023-03-01T02:44:58.901Z,13.87
2023-03-01T02:47:25.881Z,11.57
2023-03-01T02:49:55.580Z,11.33
2023-03-01T02:52:47.869Z,11.20
2023-03-01T02:55:21.941Z,12.30
2023-03-01T02:57:54.612Z,11.77
2023-03-01T03:00:34.134Z,13.00
2023-03-01T03:03:07.146Z,12.67
2023-03-01T03:05:41.763Z,10.40
2023-03-01T03:08:09.140Z,11.47
2023-03-01T03:10:41.953Z,10.90
2023-03-01T03:13:15.544Z,11.77
2023-03-01T03:15:48.860Z,11.57
2023-03-01T03:18:18.014Z,10.83
2023-03-01T03:20:47.606Z,10.03
2023-03-01T03:23:16.969Z,11.73
2023-03-01T03:25:50.509Z,11.30
2023-03-01T03:28:20.313Z,11.80
2023-03-01T03:30:51.191Z,13.97
2023-03-01T03:33:23.106Z,13.57
2023-03-01T03:35:50.530Z,12.83
2023-03-01T03:38:22.728Z,11.37
2023-03-01T03:41:03.196Z,12.57
2023-03-01T03:43:34.063Z,11.20
2023-03-01T03:46:06.512Z,13.10
2023-03-01T03:48:40.311Z,12.50
2023-03-01T03:51:08.465Z,10.47
2023-03-01T03:53:38.018Z,13.97
2023-03-01T03:56:06.645Z,13.50
2023-03-01T03:58:36.166Z,13.97
2023-03-01T04:01:06.123Z,13.13
2023-03-01T04:03:36.066Z,13.70
2023-03-01T04:06:07.521Z,11.60
2023-03-01T04:08:34.786Z,11.83
2023-03-01T04:11:26.429Z,11.03
2023-03-01T04:13:59.219Z,15.47
2023-03-01T04:16:29.300Z,13.87
2023-03-01T04:19:00.502Z,12.57
2023-03-01T04:21:27.532Z,16.20
2023-03-01T04:23:54.384Z,13.27
2023-03-01T04:26:25.777Z,17.83
2023-03-01T04:28:55.184Z,13.43
2023-03-01T04:31:22.529Z,13.57
2023-03-01T04:33:56.384Z,13.47
2023-03-01T04:36:29.319Z,16.90
2023-03-01T04:39:00.008Z,13.37
2023-03-01T04:41:29.242Z,16.80
2023-03-01T04:43:56.056Z,13.00
2023-03-01T04:46:27.896Z,12.53
2023-03-01T04:48:56.788Z,13.97
2023-03-01T04:51:26.105Z,13.10
2023-03-01T04:53:55.594Z,14.63
2023-03-01T04:56:23.982Z,12.67
2023-03-01T04:58:54.623Z,11.77
2023-03-01T05:01:24.127Z,14.10
2023-03-01T05:04:03.888Z,14.43
2023-03-01T05:06:33.814Z,12.97
2023-03-01T05:09:03.387Z,14.50
2023-03-01T05:11:34.569Z,15.23
2023-03-01T05:14:01.389Z,11.63
2023-03-01T05:16:28.903Z,12.27
2023-03-01T05:18:59.753Z,19.47
2023-03-01T05:21:29.640Z,15.10
2023-03-01T05:23:56.799Z,17.53
2023-03-01T05:26:29.526Z,13.43
2023-03-01T05:28:59.399Z,12.53
2023-03-01T05:31:26.284Z,13.60
2023-03-01T05:33:54.929Z,13.07
2023-03-01T05:36:21.797Z,14.80
2023-03-01T05:38:51.095Z,12.47
2023-03-01T05:41:20.317Z,14.47
2023-03-01T05:43:47.085Z,13.47
2023-03-01T05:46:16.226Z,12.63
2023-03-01T05:48:50.287Z,16.00
2023-03-01T05:51:17.161Z,14.20
2023-03-01T05:53:51.397Z,13.20
2023-03-01T05:56:18.410Z,13.73
2023-03-01T05:58:47.530Z,13.07
2023-03-01T06:01:17.116Z,16.30
2023-03-01T06:03:44.003Z,12.40
2023-03-01T06:06:10.937Z,15.40
2023-03-01T06:08:37.730Z,14.53
2023-03-01T06:11:08.036Z,12.77
2023-03-01T06:13:37.330Z,14.60
2023-03-01T06:16:08.311Z,13.53
2023-03-01T06:18:39.076Z,14.00
2023-03-01T06:21:07.908Z,13.17
2023-03-01T06:23:35.619Z,13.90
2023-03-01T06:26:08.520Z,14.90
2023-03-01T06:28:39.025Z,12.77
2023-03-01T06:31:10.615Z,14.27
2023-03-01T06:33:39.642Z,14.80
2023-03-01T06:36:11.648Z,17.30
2023-03-01T06:38:38.550Z,15.93
2023-03-01T06:41:10.113Z,12.03
2023-03-01T06:43:39.754Z,16.50
2023-03-01T06:46:09.827Z,13.33
2023-03-01T06:48:42.177Z,12.47
2023-03-01T06:51:08.932Z,14.63
2023-03-01T06:53:38.221Z,14.47
2023-03-01T06:56:10.170Z,14.70
2023-03-01T06:58:39.052Z,17.07
2023-03-01T07:01:12.376Z,12.83
2023-03-01T07:03:41.613Z,12.17
2023-03-01T07:06:10.991Z,11.40
2023-03-01T07:08:44.745Z,16.70
2023-03-01T07:11:19.466Z,15.60
2023-03-01T07:13:46.484Z,13.80
2023-03-01T07:16:15.786Z,15.03
2023-03-01T07:18:45.286Z,14.17
2023-03-01T07:21:14.939Z,14.40
2023-03-01T07:23:44.621Z,14.13
2023-03-01T07:26:11.459Z,13.73
2023-03-01T07:28:39.976Z,15.10
2023-03-01T07:31:10.401Z,13.90
2023-03-01T07:33:44.286Z,16.30
2023-03-01T07:36:13.289Z,17.33
2023-03-01T07:38:42.524Z,14.37
2023-03-01T07:41:12.055Z,15.07
2023-03-01T07:43:43.644Z,13.57
2023-03-01T07:46:10.974Z,15.17
2023-03-01T07:48:37.941Z,13.73
2023-03-01T07:51:10.742Z,18.47
2023-03-01T07:53:37.740Z,12.40
2023-03-01T07:56:15.591Z,14.50
2023-03-01T07:58:46.643Z,14.47
2023-03-01T08:01:20.123Z,12.93
2023-03-01T08:03:49.256Z,14.07
2023-03-01T08:06:18.787Z,17.13
2023-03-01T08:08:46.094Z,16.10
2023-03-01T08:11:16.951Z,14.57
2023-03-01T08:13:44.904Z,17.03
2023-03-01T08:16:15.461Z,17.47
2023-03-01T08:18:44.962Z,17.73
2023-03-01T08:21:16.699Z,13.50
2023-03-01T08:23:44.528Z,15.03
2023-03-01T08:26:22.395Z,18.20
2023-03-01T08:28:51.552Z,19.20
2023-03-01T08:31:32.605Z,14.20
2023-03-01T08:34:06.556Z,14.43
2023-03-01T08:36:41.451Z,15.10
2023-03-01T08:39:11.956Z,16.83
2023-03-01T08:41:44.256Z,13.40
2023-03-01T08:44:14.824Z,16.03
2023-03-01T08:46:42.968Z,15.97
2023-03-01T08:49:18.978Z,13.70
2023-03-01T08:51:47.695Z,14.47
2023-03-01T08:54:22.391Z,14.27
2023-03-01T08:56:52.819Z,17.97
2023-03-01T08:59:26.145Z,12.37
2023-03-01T09:01:57.967Z,13.97
2023-03-01T09:04:29.955Z,14.63
2023-03-01T09:06:56.893Z,14.77
2023-03-01T09:09:28.003Z,13.77
2023-03-01T09:11:59.567Z,13.30
2023-03-01T09:14:28.839Z,13.57
2023-03-01T09:16:58.294Z,13.20
2023-03-01T09:19:27.569Z,14.73
2023-03-01T09:22:01.303Z,15.73
2023-03-01T09:24:28.157Z,19.47
2023-03-01T09:26:57.059Z,15.80
2023-03-01T09:29:26.889Z,17.60
2023-03-01T09:31:56.584Z,15.23
2023-03-01T09:34:24.392Z,15.60
2023-03-01T09:36:52.107Z,18.07
2023-03-01T09:39:19.699Z,15.93
2023-03-01T09:42:07.083Z,14.30
2023-03-01T09:44:55.578Z,15.77
2023-03-01T09:47:29.162Z,15.73
2023-03-01T09:50:20.560Z,13.73
2023-03-01T09:53:07.581Z,16.00
2023-03-01T09:55:59.850Z,16.43
2023-03-01T09:58:54.687Z,16.30
2023-03-01T10:01:49.320Z,13.70
2023-03-01T10:04:49.817Z,16.93
2023-03-01T10:07:38.902Z,14.80
2023-03-01T10:10:24.789Z,15.47
2023-03-01T10:12:59.934Z,14.03
2023-03-01T10:15:39.614Z,15.93
2023-03-01T10:18:22.222Z,12.67
2023-03-01T10:21:03.690Z,15.43
2023-03-01T10:23:36.710Z,14.67
2023-03-01T10:26:42.253Z,12.83
2023-03-01T10:29:14.093Z,14.17
2023-03-01T10:31:52.196Z,13.37
2023-03-01T10:34:40.358Z,13.17
2023-03-01T10:37:22.451Z,13.53
2023-03-01T10:40:09.670Z,16.97
2023-03-01T10:42:50.260Z,12.67
2023-03-01T10:45:40.150Z,13.93
2023-03-01T10:48:17.335Z,13.90
2023-03-01T10:50:53.716Z,14.90
2023-03-01T10:53:29.938Z,12.07
2023-03-01T10:56:19.781Z,11.83
2023-03-01T10:59:04.990Z,10.43
2023-03-01T11:01:36.211Z,11.57
2023-03-01T11:04:11.053Z,11.67
2023-03-01T11:06:41.010Z,12.40
2023-03-01T11:09:21.879Z,11.00
2023-03-01T11:12:01.526Z,10.30
2023-03-01T11:14:37.268Z,9.53
2023-03-01T11:17:34.628Z,10.27
2023-03-01T11:20:14.319Z,9.13
2023-03-01T11:22:57.658Z,8.63
2023-03-01T11:25:42.684Z,9.70
2023-03-01T11:28:18.224Z,9.90
2023-03-01T11:31:09.006Z,10.93
2023-03-01T11:33:50.915Z,8.17
2023-03-01T11:36:42.955Z,7.73
2023-03-01T11:39:34.464Z,7.67
2023-03-01T11:42:19.658Z,7.30
2023-03-01T11:44:55.634Z,6.70
2023-03-01T11:48:06.573Z,9.03
2023-03-01T11:50:49.425Z,7.23
2023-03-01T11:53:50.258Z,7.37
2023-03-01T11:56:38.683Z,8.97
2023-03-01T11:59:50.507Z,6.50
2023-03-01T12:02:53.363Z,6.67
2023-03-01T12:06:04.492Z,6.87
2023-03-01T12:08:58.854Z,7.27
2023-03-01T12:12:05.640Z,8.20
2023-03-01T12:15:12.746Z,7.10
2023-03-01T12:18:33.410Z,7.97
2023-03-01T12:21:24.492Z,7.27
2023-03-01T12:24:32.331Z,7.17
2023-03-01T12:27:47.700Z,6.60
2023-03-01T12:30:57.237Z,5.73
2023-03-01T12:33:54.207Z,6.57
2023-03-01T12:37:08.534Z,7.00
2023-03-01T12:40:17.391Z,7.20
2023-03-01T12:43:24.411Z,6.33
2023-03-01T12:46:15.538Z,6.93
2023-03-01T12:49:07.785Z,6.27
2023-03-01T12:51:39.401Z,5.37
2023-03-01T12:54:31.136Z,5.90
2023-03-01T12:57:19.215Z,6.90
2023-03-01T13:00:16.144Z,6.17
2023-03-01T13:03:26.435Z,5.87
2023-03-01T13:06:43.325Z,6.47
2023-03-01T13:09:39.225Z,6.17
2023-03-01T13:12:46.528Z,6.40
2023-03-01T13:15:33.602Z,5.80
2023-03-01T13:18:20.296Z,9.40
2023-03-01T13:20:54.943Z,5.83
2023-03-01T13:23:21.894Z,5.73
2023-03-01T13:26:16.414Z,5.90
2023-03-01T13:28:47.353Z,6.63
2023-03-01T13:31:16.145Z,7.67
2023-03-01T13:33:48.658Z,6.23
2023-03-01T13:36:30.309Z,6.10
2023-03-01T13:39:05.731Z,5.70
2023-03-01T13:41:44.793Z,5.23
2023-03-01T13:44:37.030Z,5.67
2023-03-01T13:47:06.724Z,6.30
2023-03-01T13:50:04.270Z,5.77
2023-03-01T13:52:51.828Z,7.60
2023-03-01T13:55:48.680Z,7.27
2023-03-01T13:58:33.891Z,6.33
2023-03-01T14:01:06.461Z,4.93
2023-03-01T14:03:43.540Z,5.10
2023-03-01T14:06:22.861Z,5.93
2023-03-01T14:09:16.209Z,9.57
2023-03-01T14:12:07.366Z,6.13
2023-03-01T14:14:53.243Z,5.57
2023-03-01T14:18:00.536Z,5.20
2023-03-01T14:20:41.047Z,5.90
2023-03-01T14:23:16.659Z,5.60
2023-03-01T14:25:58.999Z,6.13
2023-03-01T14:28:38.175Z,6.47
2023-03-01T14:31:52.159Z,5.30
2023-03-01T14:34:25.510Z,5.27
2023-03-01T14:36:54.732Z,6.93
2023-03-01T14:39:28.638Z,7.10
2023-03-01T14:42:02.612Z,5.50
2023-03-01T14:44:34.854Z,6.03
2023-03-01T14:47:09.350Z,5.87
2023-03-01T14:49:38.534Z,6.33
2023-03-01T14:52:18.532Z,7.10
2023-03-01T14:54:55.376Z,6.03
2023-03-01T14:57:26.406Z,6.83
2023-03-01T14:59:58.273Z,6.33
2023-03-01T15:02:32.623Z,5.57
2023-03-01T15:05:07.201Z,6.17
2023-03-01T15:07:43.202Z,6.50
2023-03-01T15:10:50.196Z,6.60
2023-03-01T15:13:29.540Z,5.83
2023-03-01T15:16:13.348Z,6.70
2023-03-01T15:18:56.187Z,6.10
2023-03-01T15:21:28.683Z,7.07
2023-03-01T15:24:07.370Z,7.73
2023-03-01T15:26:47.784Z,6.47
2023-03-01T15:29:24.068Z,7.20
2023-03-01T15:32:07.275Z,7.93
2023-03-01T15:34:39.120Z,5.93
2023-03-01T15:37:40.183Z,7.00
2023-03-01T15:40:32.312Z,9.80
2023-03-01T15:43:26.465Z,7.07
2023-03-01T15:46:02.225Z,6.00
2023-03-01T15:48:34.366Z,6.67
2023-03-01T15:51:03.451Z,6.00
2023-03-01T15:53:35.309Z,7.23
2023-03-01T15:56:03.446Z,6.30
2023-03-01T15:58:30.327Z,7.67
2023-03-01T16:01:01.293Z,7.30
2023-03-01T16:03:36.079Z,12.63
2023-03-01T16:06:04.068Z,7.43
2023-03-01T16:08:31.126Z,6.70
2023-03-01T16:10:57.954Z,7.07
2023-03-01T16:13:28.268Z,8.13
2023-03-01T16:16:01.457Z,8.93
2023-03-01T16:18:30.857Z,6.07
2023-03-01T16:21:00.371Z,7.50
2023-03-01T16:23:27.201Z,7.80
2023-03-01T16:26:01.041Z,8.17
2023-03-01T16:28:29.376Z,9.57
2023-03-01T16:30:57.049Z,7.17
2023-03-01T16:33:28.530Z,8.03
2023-03-01T16:36:03.153Z,7.53
2023-03-01T16:38:33.077Z,10.57
2023-03-01T16:41:00.026Z,8.57
2023-03-01T16:43:27.191Z,6.93
2023-03-01T16:45:57.019Z,7.03
2023-03-01T16:48:24.060Z,6.90
2023-03-01T16:51:04.794Z,8.53
2023-03-01T16:53:31.751Z,9.87
2023-03-01T16:56:01.832Z,7.50
2023-03-01T16:58:33.518Z,7.97
2023-03-01T17:01:17.257Z,8.40
2023-03-01T17:03:47.298Z,7.33
2023-03-01T17:06:18.852Z,7.77
2023-03-01T17:08:45.865Z,8.30
2023-03-01T17:11:22.598Z,8.13
2023-03-01T17:13:54.271Z,9.63
2023-03-01T17:16:23.777Z,9.57
2023-03-01T17:18:51.385Z,10.60
2023-03-01T17:21:18.986Z,8.80
2023-03-01T17:23:52.042Z,10.13
2023-03-01T17:26:20.027Z,8.47
2023-03-01T17:28:52.162Z,7.90
2023-03-01T17:31:20.182Z,9.37
2023-03-01T17:33:49.958Z,9.67
2023-03-01T17:36:19.690Z,8.77
2023-03-01T17:38:49.719Z,9.27
2023-03-01T17:41:18.783Z,10.47
2023-03-01T17:43:46.179Z,11.30
2023-03-01T17:46:16.005Z,9.87
2023-03-01T17:48:43.013Z,9.43
2023-03-01T17:51:14.024Z,9.80
2023-03-01T17:53:40.998Z,9.07
2023-03-01T17:56:11.442Z,9.97
2023-03-01T17:58:40.882Z,10.37
2023-03-01T18:01:16.346Z,9.87
2023-03-01T18:03:47.724Z,9.50
2023-03-01T18:06:22.415Z,10.50
2023-03-01T18:08:55.326Z,10.57
2023-03-01T18:11:24.329Z,10.30
2023-03-01T18:13:53.821Z,11.50
2023-03-01T18:16:25.755Z,10.20
2023-03-01T18:18:57.795Z,10.90
2023-03-01T18:21:24.970Z,10.63
2023-03-01T18:23:52.313Z,11.57
2023-03-01T18:26:24.867Z,10.50
2023-03-01T18:28:58.171Z,12.50
2023-03-01T18:31:26.052Z,12.07
2023-03-01T18:34:00.745Z,10.97
2023-03-01T18:36:35.690Z,8.97
2023-03-01T18:39:07.511Z,9.90
2023-03-01T18:41:40.117Z,11.80
2023-03-01T18:44:09.688Z,12.13
2023-03-01T18:46:38.832Z,11.27
2023-03-01T18:49:14.598Z,9.83
2023-03-01T18:51:43.176Z,10.83
2023-03-01T18:54:17.509Z,11.47
2023-03-01T18:56:46.825Z,11.10
2023-03-01T18:59:15.915Z,10.23
2023-03-01T19:01:47.646Z,13.40
2023-03-01T19:04:17.047Z,13.70
2023-03-01T19:06:46.360Z,9.70
2023-03-01T19:09:20.211Z,10.47
2023-03-01T19:11:49.689Z,11.27
2023-03-01T19:14:16.585Z,11.43
2023-03-01T19:16:45.669Z,11.47
2023-03-01T19:19:12.528Z,10.67
2023-03-01T19:21:41.835Z,12.97
2023-03-01T19:24:08.779Z,13.50
2023-03-01T19:26:36.020Z,10.33
2023-03-01T19:29:03.747Z,10.40
2023-03-01T19:31:33.944Z,12.80
2023-03-01T19:34:11.368Z,11.70
2023-03-01T19:36:46.801Z,12.43
2023-03-01T19:39:19.133Z,11.53
2023-03-01T19:41:49.953Z,10.93
2023-03-01T19:44:24.682Z,10.33
2023-03-01T19:46:56.954Z,10.50
2023-03-01T19:49:27.019Z,11.87
2023-03-01T19:51:58.471Z,11.30
2023-03-01T19:54:27.691Z,11.87
2023-03-01T19:56:55.777Z,11.33
2023-03-01T19:59:24.160Z,10.30
2023-03-01T20:01:52.501Z,10.07
2023-03-01T20:04:19.423Z,12.50
2023-03-01T20:06:53.591Z,9.67
2023-03-01T20:09:22.210Z,11.50
2023-03-01T20:11:50.953Z,10.93
2023-03-01T20:14:23.572Z,11.47
2023-03-01T20:16:53.082Z,12.30
2023-03-01T20:19:20.767Z,10.97
2023-03-01T20:21:47.601Z,11.60
2023-03-01T20:24:16.692Z,11.37
2023-03-01T20:26:43.609Z,10.10
2023-03-01T20:29:11.658Z,11.60
2023-03-01T20:31:42.413Z,11.93
2023-03-01T20:34:09.351Z,12.73
2023-03-01T20:36:39.276Z,10.63
2023-03-01T20:39:06.266Z,11.57
2023-03-01T20:41:33.270Z,10.90
2023-03-01T20:44:00.428Z,10.10
2023-03-01T20:46:32.281Z,10.27
2023-03-01T20:49:03.754Z,11.87
2023-03-01T20:51:35.865Z,11.83
2023-03-01T20:54:05.358Z,12.70
2023-03-01T20:56:32.543Z,11.47
2023-03-01T20:59:08.374Z,12.30
2023-03-01T21:01:35.737Z,14.43
2023-03-01T21:04:05.321Z,12.63
2023-03-01T21:06:34.962Z,11.77
2023-03-01T21:09:02.091Z,11.93
2023-03-01T21:11:31.602Z,13.33
2023-03-01T21:13:58.609Z,11.03
2023-03-01T21:16:35.118Z,12.57
2023-03-01T21:19:04.979Z,12.50
2023-03-01T21:21:31.920Z,11.57
2023-03-01T21:23:58.762Z,11.90
2023-03-01T21:26:30.056Z,11.73
2023-03-01T21:29:01.452Z,12.77
2023-03-01T21:31:33.870Z,11.73
2023-03-01T21:34:08.821Z,10.33
2023-03-01T21:36:37.790Z,12.90
2023-03-01T21:39:06.591Z,10.33
2023-03-01T21:41:39.007Z,11.70
2023-03-01T21:44:08.316Z,9.73
2023-03-01T21:46:39.802Z,12.77
2023-03-01T21:49:13.095Z,13.97
2023-03-01T21:51:40.008Z,12.10
2023-03-01T21:54:07.253Z,9.97
2023-03-01T21:56:39.893Z,13.63
2023-03-01T21:59:17.642Z,11.33
2023-03-01T22:01:46.249Z,11.40
2023-03-01T22:04:20.008Z,11.13
2023-03-01T22:06:54.249Z,10.03
2023-03-01T22:09:25.590Z,12.17
2023-03-01T22:12:02.544Z,11.23
2023-03-01T22:14:33.893Z,11.30
2023-03-01T22:17:01.144Z,12.33
2023-03-01T22:19:31.497Z,9.80
2023-03-01T22:22:03.241Z,11.43
2023-03-01T22:24:34.928Z,13.67
2023-03-01T22:27:01.797Z,10.60
2023-03-01T22:29:32.585Z,11.23
2023-03-01T22:32:04.858Z,13.47
2023-03-01T22:34:31.865Z,11.90
2023-03-01T22:37:00.746Z,11.80
2023-03-01T22:39:27.693Z,15.07
2023-03-01T22:41:59.219Z,12.00
2023-03-01T22:44:26.161Z,13.33
2023-03-01T22:46:55.474Z,12.53
2023-03-01T22:49:29.702Z,12.33
2023-03-01T22:52:00.387Z,12.47
2023-03-01T22:54:30.100Z,10.53
2023-03-01T22:56:56.921Z,13.27
2023-03-01T22:59:26.226Z,13.50
2023-03-01T23:01:57.844Z,14.57
2023-03-01T23:04:24.827Z,11.70
2023-03-01T23:06:56.869Z,9.23
2023-03-01T23:09:32.868Z,11.10
2023-03-01T23:12:06.633Z,13.57
2023-03-01T23:14:34.802Z,11.17
2023-03-01T23:17:02.814Z,10.30
2023-03-01T23:19:34.998Z,12.93
2023-03-01T23:22:01.940Z,13.33
2023-03-01T23:24:31.649Z,11.23
2023-03-01T23:27:02.456Z,11.37
2023-03-01T23:29:30.501Z,13.30
2023-03-01T23:31:58.118Z,11.07
2023-03-01T23:34:26.654Z,12.30
2023-03-01T23:36:58.821Z,13.97
2023-03-01T23:39:27.316Z,11.00
2023-03-01T23:41:54.189Z,13.07
2023-03-01T23:44:24.149Z,12.23
2023-03-01T23:46:51.200Z,10.97
2023-03-01T23:49:23.003Z,12.33
2023-03-01T23:51:50.834Z,10.63
2023-03-01T23:54:23.257Z,12.20
2023-03-01T23:56:53.181Z,10.70
2023-03-01T23:59:24.362Z,14.70
